Time;durP1;ratioP1;P1;durP2;ratioP2;P2;SDS_P1;SDS_P2;PMS_P1;PMS_P2;Temp;Humidity;BMP_temperature;BMP_pressure;BME280_temperature;BME280_humidity;BME280_pressure;Samples;Min_cycle;Max_cycle;Signal;HPM_P1;HPM_P2
2021/12/21 00:00:11;;;;;;;27.45;12.75;;;;;;;;;;4990667;28;99988;-68
2021/12/21 00:02:41;;;;;;;28.13;12.77;;;;;;;;;;4985745;28;100393;-68
2021/12/21 00:05:09;;;;;;;28.25;13.18;;;;;;;;;;4989940;28;99763;-68
2021/12/21 00:07:35;;;;;;;22.77;12.98;;;;;;;;;;4987897;28;97861;-68
2021/12/21 00:10:02;;;;;;;20.65;12.88;;;;;;;;;;4987233;27;98585;-69
2021/12/21 00:12:32;;;;;;;35.03;13.55;;;;;;;;;;4990420;28;100553;-69
2021/12/21 00:15:03;;;;;;;26.85;13.95;;;;;;;;;;4989790;28;99340;-69
2021/12/21 00:17:46;;;;;;;28.98;13.73;;;;;;;;;;4982677;28;99931;-69
2021/12/21 00:25:19;;;;;;;40.33;13.55;;;;;;;;;;4994936;28;100518;-69
2021/12/21 00:27:47;;;;;;;32.60;14.23;;;;;;;;;;4992628;28;98630;-69
2021/12/21 00:30:14;;;;;;;25.83;13.50;;;;;;;;;;4994792;28;100086;-69
2021/12/21 00:32:41;;;;;;;34.53;15.15;;;;;;;;;;4991502;28;99745;-69
2021/12/21 00:35:08;;;;;;;29.70;14.13;;;;;;;;;;4995751;28;100761;-70
2021/12/21 00:37:36;;;;;;;25.15;12.43;;;;;;;;;;4989599;28;100515;-69
2021/12/21 00:40:03;;;;;;;25.55;13.48;;;;;;;;;;4996512;28;99361;-71
2021/12/21 00:42:29;;;;;;;31.00;13.93;;;;;;;;;;4987493;28;100160;-69
2021/12/21 00:44:56;;;;;;;22.90;12.88;;;;;;;;;;4994133;28;99546;-69
2021/12/21 00:47:22;;;;;;;29.73;12.98;;;;;;;;;;4992133;28;98525;-69
2021/12/21 00:49:58;;;;;;;20.77;12.25;;;;;;;;;;4992120;28;100033;-69
2021/12/21 00:52:25;;;;;;;30.42;13.75;;;;;;;;;;4989945;28;99481;-69
2021/12/21 00:54:51;;;;;;;26.55;12.98;;;;;;;;;;4995479;28;98595;-68
2021/12/21 00:57:18;;;;;;;28.17;12.52;;;;;;;;;;4995581;28;99246;-70
2021/12/21 00:59:44;;;;;;;27.30;13.90;;;;;;;;;;4993341;28;99565;-69
2021/12/21 01:02:11;;;;;;;29.17;12.40;;;;;;;;;;4993081;28;100127;-69
2021/12/21 01:04:42;;;;;;;29.73;12.48;;;;;;;;;;4992790;28;100618;-69
2021/12/21 01:12:40;;;;;;;20.50;12.10;;;;;;;;;;4989873;27;99488;-70
2021/12/21 01:20:29;;;;;;;19.45;11.65;;;;;;;;;;4997671;28;99240;-69
2021/12/21 01:23:25;;;;;;;19.65;11.27;;;;;;;;;;4982675;28;99406;-70
2021/12/21 01:25:57;;;;;;;29.45;12.52;;;;;;;;;;4994280;28;99555;-70
2021/12/21 01:28:47;;;;;;;20.75;11.32;;;;;;;;;;4989155;28;99035;-70
2021/12/21 01:34:07;;;;;;;27.52;12.90;;;;;;;;;;4998431;28;100289;-70
2021/12/21 01:42:01;;;;;;;24.98;11.82;;;;;;;;;;4989822;28;100511;-69
2021/12/21 01:49:58;;;;;;;28.42;12.77;;;;;;;;;;4983026;28;98210;-68
2021/12/21 01:52:26;;;;;;;24.55;11.55;;;;;;;;;;4987863;28;99340;-68
2021/12/21 01:54:53;;;;;;;22.55;12.88;;;;;;;;;;4995000;28;99401;-68
2021/12/21 01:57:19;;;;;;;24.33;12.50;;;;;;;;;;4993133;28;99466;-68
2021/12/21 01:59:47;;;;;;;20.52;12.75;;;;;;;;;;4988103;28;99869;-68
2021/12/21 02:02:16;;;;;;;32.03;12.73;;;;;;;;;;4989087;28;100455;-68
2021/12/21 02:04:42;;;;;;;24.98;13.18;;;;;;;;;;5001211;28;98545;-68
2021/12/21 02:07:09;;;;;;;27.00;11.43;;;;;;;;;;4990860;28;100740;-69
2021/12/21 02:09:37;;;;;;;24.73;11.45;;;;;;;;;;4988180;28;98518;-69
2021/12/21 02:12:11;;;;;;;28.65;12.38;;;;;;;;;;4981193;28;99487;-69
2021/12/21 02:14:39;;;;;;;29.63;12.68;;;;;;;;;;4989403;28;100375;-69
2021/12/21 02:17:35;;;;;;;23.83;12.52;;;;;;;;;;4985686;28;98623;-68
2021/12/21 02:20:06;;;;;;;27.67;12.93;;;;;;;;;;4986709;28;99894;-68
2021/12/21 02:22:35;;;;;;;20.15;11.05;;;;;;;;;;4987850;28;100806;-69
2021/12/21 02:25:21;;;;;;;23.67;11.57;;;;;;;;;;4992381;28;98684;-68
2021/12/21 02:28:10;;;;;;;25.77;11.48;;;;;;;;;;4989925;28;99254;-68
2021/12/21 02:30:38;;;;;;;29.85;11.95;;;;;;;;;;5000253;28;99869;-68
2021/12/21 02:33:04;;;;;;;25.70;11.88;;;;;;;;;;4987727;28;99766;-69
2021/12/21 02:35:30;;;;;;;34.67;12.20;;;;;;;;;;4991494;28;100579;-69
2021/12/21 02:37:57;;;;;;;30.33;12.75;;;;;;;;;;4989721;28;98605;-69
2021/12/21 02:40:23;;;;;;;21.30;12.45;;;;;;;;;;4988366;28;99474;-69
2021/12/21 02:42:50;;;;;;;26.98;12.32;;;;;;;;;;4988818;28;99610;-68
2021/12/21 02:45:16;;;;;;;16.75;10.50;;;;;;;;;;4993503;28;100247;-68
2021/12/21 02:47:42;;;;;;;22.95;11.10;;;;;;;;;;4986669;28;100225;-68
2021/12/21 02:50:09;;;;;;;30.33;11.50;;;;;;;;;;4991257;28;100323;-68
2021/12/21 02:52:35;;;;;;;22.65;11.05;;;;;;;;;;4989678;28;100067;-68
2021/12/21 02:55:05;;;;;;;23.40;10.57;;;;;;;;;;4992424;28;99313;-68
2021/12/21 02:57:31;;;;;;;15.50;9.77;;;;;;;;;;4988037;28;99874;-68
2021/12/21 03:00:00;;;;;;;23.17;11.15;;;;;;;;;;4990809;28;100710;-69
2021/12/21 03:02:28;;;;;;;22.88;11.63;;;;;;;;;;4987009;28;100276;-67
2021/12/21 03:04:55;;;;;;;17.55;10.90;;;;;;;;;;4992085;28;97926;-68
2021/12/21 03:07:54;;;;;;;23.02;10.70;;;;;;;;;;4989564;28;98828;-68
2021/12/21 03:10:13;;;;;;;25.50;10.32;;;;;;;;;;4987640;28;99913;-68
2021/12/21 03:15:24;;;;;;;19.38;10.90;;;;;;;;;;4991720;28;99516;-68
2021/12/21 03:17:51;;;;;;;19.48;10.70;;;;;;;;;;4989954;28;99456;-68
2021/12/21 03:20:18;;;;;;;22.70;10.90;;;;;;;;;;4987465;28;100180;-68
2021/12/21 03:22:44;;;;;;;28.88;10.65;;;;;;;;;;4991333;28;102194;-68
2021/12/21 03:25:11;;;;;;;20.40;11.00;;;;;;;;;;4991906;28;98683;-68
2021/12/21 03:27:38;;;;;;;17.83;10.27;;;;;;;;;;4987747;28;100508;-68
2021/12/21 03:30:05;;;;;;;22.20;10.35;;;;;;;;;;4990512;28;97900;-68
2021/12/21 03:32:32;;;;;;;16.75;9.60;;;;;;;;;;4986892;28;98617;-68
2021/12/21 03:34:58;;;;;;;23.75;10.15;;;;;;;;;;4993376;27;99088;-68
2021/12/21 03:37:25;;;;;;;19.50;10.55;;;;;;;;;;4985821;28;99563;-69
2021/12/21 03:39:53;;;;;;;20.85;11.10;;;;;;;;;;4993647;27;99759;-68
2021/12/21 03:42:20;;;;;;;20.25;10.73;;;;;;;;;;4986981;28;99500;-69
2021/12/21 03:44:47;;;;;;;22.33;12.38;;;;;;;;;;4988691;28;100490;-68
2021/12/21 03:47:16;;;;;;;21.27;10.30;;;;;;;;;;4987355;28;100159;-68
2021/12/21 03:52:14;;;;;;;21.95;9.70;;;;;;;;;;4987195;28;98649;-68
2021/12/21 03:54:41;;;;;;;27.13;9.40;;;;;;;;;;4989485;28;100217;-68
2021/12/21 03:57:08;;;;;;;21.90;9.98;;;;;;;;;;4998322;28;100631;-68
2021/12/21 03:59:34;;;;;;;18.45;9.88;;;;;;;;;;4992027;28;100218;-68
2021/12/21 04:02:01;;;;;;;18.65;10.02;;;;;;;;;;4987281;28;101090;-69
2021/12/21 04:04:27;;;;;;;16.15;9.90;;;;;;;;;;4993407;28;99026;-67
2021/12/21 04:06:54;;;;;;;16.75;9.77;;;;;;;;;;4985411;28;101644;-69
2021/12/21 04:09:20;;;;;;;19.25;9.27;;;;;;;;;;4988905;28;99265;-69
2021/12/21 04:11:46;;;;;;;19.40;10.02;;;;;;;;;;4991848;28;98622;-70
2021/12/21 04:14:13;;;;;;;21.27;9.30;;;;;;;;;;4994342;28;100071;-70
2021/12/21 04:16:40;;;;;;;22.80;10.18;;;;;;;;;;4991342;28;99510;-69
2021/12/21 04:19:06;;;;;;;26.17;9.55;;;;;;;;;;4993511;28;97772;-70
2021/12/21 04:21:33;;;;;;;13.55;8.73;;;;;;;;;;4993265;28;100426;-69
2021/12/21 04:23:59;;;;;;;18.15;10.75;;;;;;;;;;4993958;28;98736;-70
2021/12/21 04:26:26;;;;;;;19.80;10.73;;;;;;;;;;4988968;28;100361;-70
2021/12/21 04:28:52;;;;;;;19.10;9.25;;;;;;;;;;4993827;28;100366;-69
2021/12/21 04:31:19;;;;;;;18.13;9.13;;;;;;;;;;4991959;28;99704;-70
2021/12/21 04:33:46;;;;;;;20.92;10.15;;;;;;;;;;4987252;28;99595;-69
2021/12/21 04:36:13;;;;;;;19.17;9.07;;;;;;;;;;4988128;28;99944;-69
2021/12/21 04:38:44;;;;;;;14.93;9.48;;;;;;;;;;4991560;28;98727;-69
2021/12/21 04:41:17;;;;;;;14.95;9.32;;;;;;;;;;5003969;28;100310;-69
2021/12/21 04:43:43;;;;;;;15.52;10.00;;;;;;;;;;5006214;28;99070;-69
2021/12/21 04:46:10;;;;;;;18.80;9.38;;;;;;;;;;4993671;28;99321;-69
2021/12/21 04:48:37;;;;;;;26.90;10.88;;;;;;;;;;4987129;28;101919;-69
2021/12/21 04:51:03;;;;;;;20.85;9.57;;;;;;;;;;4987850;28;99408;-69
2021/12/21 04:53:30;;;;;;;13.45;8.93;;;;;;;;;;4987619;28;100607;-69
2021/12/21 04:55:56;;;;;;;19.02;9.57;;;;;;;;;;4986987;28;100748;-69
2021/12/21 04:58:24;;;;;;;22.17;9.25;;;;;;;;;;4989796;28;100943;-69
2021/12/21 05:00:50;;;;;;;26.85;9.50;;;;;;;;;;4987028;28;100200;-69
2021/12/21 05:03:17;;;;;;;19.38;9.65;;;;;;;;;;4987158;28;98860;-69
2021/12/21 05:05:43;;;;;;;22.27;10.30;;;;;;;;;;4988418;28;100670;-68
2021/12/21 05:08:13;;;;;;;22.25;9.73;;;;;;;;;;4989671;28;99512;-68
2021/12/21 05:10:47;;;;;;;20.20;9.80;;;;;;;;;;4990185;28;98654;-68
2021/12/21 05:13:15;;;;;;;18.10;10.25;;;;;;;;;;4997236;28;100052;-69
2021/12/21 05:15:42;;;;;;;18.58;10.02;;;;;;;;;;4986861;28;101521;-69
2021/12/21 05:18:09;;;;;;;13.80;8.95;;;;;;;;;;4989034;28;98632;-69
2021/12/21 05:20:36;;;;;;;15.98;10.02;;;;;;;;;;4990092;28;99391;-69
2021/12/21 05:23:03;;;;;;;22.05;9.35;;;;;;;;;;4993092;28;99364;-69
2021/12/21 05:25:29;;;;;;;21.25;9.80;;;;;;;;;;4991151;28;100614;-69
2021/12/21 05:27:55;;;;;;;22.13;10.00;;;;;;;;;;4990214;28;99902;-69
2021/12/21 05:30:23;;;;;;;14.57;8.48;;;;;;;;;;4988295;28;98701;-69
2021/12/21 05:32:50;;;;;;;17.10;10.18;;;;;;;;;;4989726;28;100275;-69
2021/12/21 05:35:17;;;;;;;21.20;9.95;;;;;;;;;;4988994;28;100426;-69
2021/12/21 05:37:46;;;;;;;21.83;10.25;;;;;;;;;;4989333;28;98841;-69
2021/12/21 05:40:17;;;;;;;22.92;10.70;;;;;;;;;;4988758;28;100381;-69
2021/12/21 05:42:45;;;;;;;17.80;9.57;;;;;;;;;;4987933;28;99924;-69
2021/12/21 05:45:12;;;;;;;24.65;9.90;;;;;;;;;;4993397;28;98552;-69
2021/12/21 05:47:38;;;;;;;21.27;10.57;;;;;;;;;;4992899;28;99346;-68
2021/12/21 05:50:07;;;;;;;22.00;9.88;;;;;;;;;;4988233;28;98676;-69
2021/12/21 05:52:34;;;;;;;19.30;11.55;;;;;;;;;;4985563;28;100051;-70
2021/12/21 05:55:00;;;;;;;18.42;10.57;;;;;;;;;;4989227;28;100487;-69
2021/12/21 05:57:27;;;;;;;15.65;10.05;;;;;;;;;;4988850;28;97772;-69
2021/12/21 05:59:53;;;;;;;22.05;11.02;;;;;;;;;;4993930;28;99453;-69
2021/12/21 06:02:19;;;;;;;28.02;10.20;;;;;;;;;;4988738;28;100278;-68
2021/12/21 06:04:46;;;;;;;26.27;11.68;;;;;;;;;;4988808;28;99771;-69
2021/12/21 06:07:12;;;;;;;25.05;10.38;;;;;;;;;;4983460;28;101419;-68
2021/12/21 06:09:40;;;;;;;21.98;11.25;;;;;;;;;;4988885;28;98596;-69
2021/12/21 06:12:14;;;;;;;31.88;11.10;;;;;;;;;;4988325;28;100534;-69
2021/12/21 06:15:18;;;;;;;15.43;10.65;;;;;;;;;;4989405;28;100249;-69
2021/12/21 06:23:46;;;;;;;28.30;11.20;;;;;;;;;;4987453;28;99872;-69
2021/12/21 06:26:12;;;;;;;23.52;11.23;;;;;;;;;;4989424;28;100010;-69
2021/12/21 06:28:39;;;;;;;19.85;10.80;;;;;;;;;;4988521;28;100554;-69
2021/12/21 06:31:06;;;;;;;19.90;10.75;;;;;;;;;;4991731;28;100969;-68
2021/12/21 06:33:32;;;;;;;17.45;10.23;;;;;;;;;;4986826;28;100234;-69
2021/12/21 06:35:59;;;;;;;17.10;9.82;;;;;;;;;;4990285;28;98514;-69
2021/12/21 06:38:26;;;;;;;17.92;10.13;;;;;;;;;;4991707;28;100257;-69
2021/12/21 06:40:52;;;;;;;23.33;10.98;;;;;;;;;;4989192;28;99197;-69
2021/12/21 06:43:18;;;;;;;17.50;10.10;;;;;;;;;;4990781;27;100176;-69
2021/12/21 06:45:54;;;;;;;22.23;10.75;;;;;;;;;;4990710;28;98840;-69
2021/12/21 06:51:23;;;;;;;18.55;10.13;;;;;;;;;;4989816;28;100465;-69
2021/12/21 06:53:51;;;;;;;13.07;9.48;;;;;;;;;;4996051;28;99857;-69
2021/12/21 06:56:22;;;;;;;;;;;;;;;;;;4989815;28;101105;-69
2021/12/21 06:58:49;;;;;;;21.55;9.73;;;;;;;;;;4989865;28;112651;-69
2021/12/21 07:01:16;;;;;;;13.32;9.23;;;;;;;;;;4987290;28;99988;-69
2021/12/21 07:03:43;;;;;;;24.75;11.40;;;;;;;;;;4988649;28;99544;-69
2021/12/21 07:06:10;;;;;;;18.95;10.13;;;;;;;;;;4990832;28;98673;-69
2021/12/21 07:09:29;;;;;;;18.92;10.40;;;;;;;;;;4989789;28;100480;-69
2021/12/21 07:19:29;;;;;;;18.83;10.45;;;;;;;;;;4989958;28;100006;-71
2021/12/21 07:21:56;;;;;;;20.08;10.70;;;;;;;;;;4986869;28;100483;-69
2021/12/21 07:24:23;;;;;;;16.73;10.40;;;;;;;;;;4991052;28;99734;-69
2021/12/21 07:26:49;;;;;;;17.52;10.30;;;;;;;;;;4995660;28;98684;-69
2021/12/21 07:29:16;;;;;;;16.27;10.77;;;;;;;;;;4988852;28;102200;-70
2021/12/21 07:31:43;;;;;;;25.52;11.93;;;;;;;;;;4988050;28;100487;-69
2021/12/21 07:34:10;;;;;;;23.60;11.70;;;;;;;;;;4992075;28;98629;-70
2021/12/21 07:36:36;;;;;;;12.32;10.52;;;;;;;;;;4988990;28;100321;-70
2021/12/21 07:39:06;;;;;;;18.13;11.38;;;;;;;;;;4988601;28;97805;-70
2021/12/21 07:41:33;;;;;;;22.60;12.32;;;;;;;;;;4991795;28;99419;-70
2021/12/21 07:44:00;;;;;;;21.63;11.15;;;;;;;;;;4990737;28;100391;-69
2021/12/21 07:46:26;;;;;;;19.30;11.48;;;;;;;;;;4996416;28;100909;-70
2021/12/21 07:48:53;;;;;;;21.25;10.63;;;;;;;;;;4995284;28;99796;-70
2021/12/21 07:51:20;;;;;;;24.20;10.40;;;;;;;;;;4986814;28;100902;-70
2021/12/21 07:53:47;;;;;;;18.70;9.93;;;;;;;;;;4993067;28;98592;-70
2021/12/21 07:56:14;;;;;;;23.48;11.77;;;;;;;;;;4989397;28;99912;-70
2021/12/21 07:58:40;;;;;;;25.27;12.63;;;;;;;;;;5001456;28;100479;-70
2021/12/21 08:01:07;;;;;;;28.75;13.73;;;;;;;;;;4991860;28;99692;-70
2021/12/21 08:03:34;;;;;;;21.35;12.50;;;;;;;;;;4994613;28;100020;-70
2021/12/21 08:06:02;;;;;;;25.08;12.63;;;;;;;;;;4987763;28;98637;-70
2021/12/21 08:08:30;;;;;;;23.38;12.38;;;;;;;;;;4997701;28;100041;-69
2021/12/21 08:11:14;;;;;;;26.67;12.73;;;;;;;;;;4994254;28;100259;-70
2021/12/21 08:13:43;;;;;;;22.65;12.68;;;;;;;;;;4992386;28;99864;-70
2021/12/21 08:16:10;;;;;;;19.67;11.80;;;;;;;;;;4996602;28;99933;-70
2021/12/21 08:18:37;;;;;;;21.75;12.45;;;;;;;;;;4993810;28;99502;-70
2021/12/21 08:21:03;;;;;;;19.50;12.50;;;;;;;;;;4982671;28;99890;-70
2021/12/21 08:23:30;;;;;;;24.67;12.48;;;;;;;;;;4980221;28;99583;-70
2021/12/21 08:25:56;;;;;;;28.98;13.65;;;;;;;;;;4968021;28;98595;-70
2021/12/21 08:28:23;;;;;;;23.05;12.70;;;;;;;;;;4971699;28;100844;-70
2021/12/21 08:30:49;;;;;;;31.52;13.05;;;;;;;;;;4976434;28;99561;-70
2021/12/21 08:33:21;;;;;;;17.23;12.20;;;;;;;;;;4989628;28;99182;-70
2021/12/21 08:35:47;;;;;;;19.65;12.18;;;;;;;;;;4977879;28;100098;-70
2021/12/21 08:38:16;;;;;;;25.15;13.27;;;;;;;;;;4976285;28;100262;-69
2021/12/21 08:40:46;;;;;;;16.17;12.20;;;;;;;;;;4985874;28;99171;-70
2021/12/21 08:43:14;;;;;;;25.48;12.40;;;;;;;;;;4998445;28;100368;-70
2021/12/21 08:45:41;;;;;;;22.17;12.73;;;;;;;;;;4989872;28;99247;-69
2021/12/21 08:48:08;;;;;;;21.63;13.52;;;;;;;;;;4991765;28;99675;-69
2021/12/21 08:50:35;;;;;;;24.45;14.23;;;;;;;;;;4991004;28;100370;-69
2021/12/21 08:53:02;;;;;;;25.10;14.23;;;;;;;;;;4997822;28;97827;-69
2021/12/21 08:55:29;;;;;;;22.23;14.23;;;;;;;;;;4991818;28;98590;-69
2021/12/21 08:57:55;;;;;;;22.42;14.15;;;;;;;;;;5000828;28;101101;-69
2021/12/21 09:00:22;;;;;;;20.23;14.02;;;;;;;;;;4980712;28;100842;-69
2021/12/21 09:02:48;;;;;;;19.98;12.90;;;;;;;;;;5001363;28;101505;-69
2021/12/21 09:05:16;;;;;;;29.23;14.55;;;;;;;;;;4982804;28;98948;-68
2021/12/21 09:07:43;;;;;;;28.48;13.48;;;;;;;;;;4980940;28;99937;-69
2021/12/21 09:10:09;;;;;;;23.30;13.95;;;;;;;;;;4977667;28;100979;-69
2021/12/21 09:12:36;;;;;;;25.10;14.70;;;;;;;;;;4979739;28;98518;-69
2021/12/21 09:15:03;;;;;;;25.67;14.52;;;;;;;;;;4970824;28;100209;-69
2021/12/21 09:17:29;;;;;;;23.42;14.93;;;;;;;;;;4976754;28;100707;-70
2021/12/21 09:19:56;;;;;;;20.13;13.70;;;;;;;;;;4984656;28;99108;-70
2021/12/21 09:22:43;;;;;;;23.88;14.63;;;;;;;;;;4978936;28;100436;-69
2021/12/21 09:25:09;;;;;;;24.65;14.20;;;;;;;;;;4991086;28;101133;-69
2021/12/21 09:27:37;;;;;;;24.60;15.05;;;;;;;;;;4980394;28;101041;-69
2021/12/21 09:30:07;;;;;;;31.35;15.30;;;;;;;;;;4996304;28;100586;-69
2021/12/21 09:32:34;;;;;;;21.38;13.98;;;;;;;;;;4997795;28;99341;-69
2021/12/21 09:35:00;;;;;;;29.88;14.60;;;;;;;;;;4997114;28;99127;-69
2021/12/21 09:37:27;;;;;;;22.40;14.05;;;;;;;;;;4996003;28;99173;-69
2021/12/21 09:39:55;;;;;;;23.27;14.15;;;;;;;;;;4989324;28;98564;-69
2021/12/21 09:42:23;;;;;;;27.42;13.98;;;;;;;;;;5009325;28;100476;-69
2021/12/21 09:44:50;;;;;;;26.55;14.70;;;;;;;;;;4982786;28;100309;-69
2021/12/21 09:47:17;;;;;;;19.33;13.57;;;;;;;;;;5009252;28;98639;-69
2021/12/21 09:49:44;;;;;;;21.38;14.32;;;;;;;;;;4992509;28;101054;-69
2021/12/21 09:52:12;;;;;;;24.05;13.98;;;;;;;;;;4993348;28;98698;-69
2021/12/21 09:54:39;;;;;;;24.00;13.35;;;;;;;;;;4976515;28;99190;-69
2021/12/21 09:57:06;;;;;;;20.15;13.15;;;;;;;;;;4998206;28;99464;-69
2021/12/21 09:59:33;;;;;;;16.58;13.05;;;;;;;;;;4994671;28;98978;-69
2021/12/21 10:02:01;;;;;;;23.88;13.23;;;;;;;;;;4988638;28;100238;-69
2021/12/21 10:04:28;;;;;;;14.95;12.65;;;;;;;;;;4978337;28;100704;-69
2021/12/21 10:07:00;;;;;;;22.25;13.27;;;;;;;;;;4979439;28;98332;-69
2021/12/21 10:09:33;;;;;;;24.08;13.52;;;;;;;;;;4990769;28;98526;-70
2021/12/21 10:12:03;;;;;;;23.52;13.93;;;;;;;;;;4988696;28;98677;-69
2021/12/21 10:14:30;;;;;;;20.08;12.75;;;;;;;;;;4992837;28;99400;-69
2021/12/21 10:17:02;;;;;;;28.52;14.35;;;;;;;;;;5004792;28;99520;-69
2021/12/21 10:19:29;;;;;;;32.53;18.75;;;;;;;;;;4988919;28;100783;-69
2021/12/21 10:21:55;;;;;;;49.67;35.20;;;;;;;;;;4993573;28;103222;-70
2021/12/21 10:24:28;;;;;;;40.30;29.90;;;;;;;;;;4982169;28;99391;-69
2021/12/21 10:27:08;;;;;;;47.22;34.42;;;;;;;;;;4973725;28;101577;-70
2021/12/21 10:29:41;;;;;;;50.75;34.70;;;;;;;;;;4972860;28;99700;-70
2021/12/21 10:32:15;;;;;;;41.10;29.55;;;;;;;;;;4986097;28;98647;-70
2021/12/21 10:34:49;;;;;;;43.58;30.00;;;;;;;;;;4989110;28;99604;-69
2021/12/21 10:37:24;;;;;;;44.67;28.35;;;;;;;;;;4985852;28;100872;-69
2021/12/21 10:40:01;;;;;;;33.92;25.00;;;;;;;;;;4994155;28;99817;-69
2021/12/21 10:42:28;;;;;;;33.30;23.88;;;;;;;;;;4972698;28;100762;-69
2021/12/21 10:45:01;;;;;;;37.25;22.55;;;;;;;;;;4982525;28;100308;-69
2021/12/21 10:47:32;;;;;;;35.78;21.98;;;;;;;;;;4987878;28;98847;-70
2021/12/21 10:49:59;;;;;;;34.03;22.65;;;;;;;;;;4995776;27;99178;-69
2021/12/21 10:52:25;;;;;;;35.20;23.08;;;;;;;;;;4988381;28;100282;-69
2021/12/21 10:54:52;;;;;;;31.48;21.83;;;;;;;;;;4997140;28;98554;-69
2021/12/21 10:57:19;;;;;;;35.00;21.63;;;;;;;;;;4988047;28;99705;-69
2021/12/21 10:59:46;;;;;;;35.22;21.33;;;;;;;;;;4985372;28;98900;-70
2021/12/21 11:02:16;;;;;;;36.45;21.90;;;;;;;;;;4988080;28;100996;-69
2021/12/21 11:04:44;;;;;;;38.38;25.42;;;;;;;;;;4995395;28;101479;-69
2021/12/21 11:07:27;;;;;;;45.83;28.20;;;;;;;;;;4997135;28;98572;-69
2021/12/21 11:09:55;;;;;;;42.30;25.83;;;;;;;;;;4997071;28;100176;-69
2021/12/21 11:12:23;;;;;;;37.33;26.10;;;;;;;;;;4994442;28;99500;-69
2021/12/21 11:14:50;;;;;;;39.63;27.90;;;;;;;;;;4999360;28;100233;-69
2021/12/21 11:17:16;;;;;;;54.05;33.10;;;;;;;;;;4983266;28;100802;-68
2021/12/21 11:19:43;;;;;;;48.10;32.55;;;;;;;;;;4990674;28;100451;-68
2021/12/21 11:22:09;;;;;;;45.25;32.38;;;;;;;;;;4993240;28;99395;-69
2021/12/21 11:24:37;;;;;;;43.05;28.20;;;;;;;;;;4991991;28;99317;-68
2021/12/21 11:27:04;;;;;;;38.78;24.98;;;;;;;;;;4990634;28;101062;-69
2021/12/21 11:29:31;;;;;;;43.13;25.17;;;;;;;;;;4989256;28;100454;-68
2021/12/21 11:32:00;;;;;;;36.63;24.02;;;;;;;;;;4985056;28;101275;-69
2021/12/21 11:34:32;;;;;;;33.63;23.08;;;;;;;;;;4977231;28;100114;-69
2021/12/21 11:39:43;;;;;;;39.22;22.17;;;;;;;;;;4981068;28;100341;-69
2021/12/21 11:42:17;;;;;;;33.15;20.60;;;;;;;;;;4980113;28;99530;-69
2021/12/21 11:44:52;;;;;;;33.90;19.60;;;;;;;;;;4969468;28;99615;-69
2021/12/21 11:47:24;;;;;;;29.08;18.42;;;;;;;;;;4979587;28;97999;-69
2021/12/21 11:49:54;;;;;;;36.25;20.52;;;;;;;;;;4977102;28;99790;-69
2021/12/21 11:52:22;;;;;;;27.63;19.08;;;;;;;;;;4983606;28;100088;-69
2021/12/21 11:54:50;;;;;;;40.63;20.27;;;;;;;;;;4984239;28;99466;-69
2021/12/21 11:57:18;;;;;;;23.35;18.25;;;;;;;;;;4975696;28;100222;-69
2021/12/21 11:59:46;;;;;;;31.40;19.63;;;;;;;;;;4980986;28;100216;-69
2021/12/21 12:02:12;;;;;;;32.40;20.48;;;;;;;;;;4988385;28;100155;-69
2021/12/21 12:04:39;;;;;;;31.45;19.40;;;;;;;;;;4974595;28;100564;-69
2021/12/21 12:07:16;;;;;;;33.45;18.08;;;;;;;;;;4978173;28;99649;-69
2021/12/21 12:09:42;;;;;;;28.98;18.15;;;;;;;;;;4978571;28;100304;-69
2021/12/21 12:12:13;;;;;;;34.25;19.13;;;;;;;;;;4977974;28;99792;-69
2021/12/21 12:14:41;;;;;;;28.23;19.60;;;;;;;;;;4980646;28;98690;-69
2021/12/21 12:17:15;;;;;;;31.75;19.48;;;;;;;;;;4984270;28;99806;-69
2021/12/21 12:19:49;;;;;;;27.45;18.27;;;;;;;;;;4977400;28;101909;-71
2021/12/21 12:22:16;;;;;;;37.95;18.85;;;;;;;;;;4983093;28;98720;-69
2021/12/21 12:24:56;;;;;;;28.52;17.88;;;;;;;;;;4992691;28;100291;-69
2021/12/21 12:27:27;;;;;;;31.15;18.83;;;;;;;;;;4994267;28;99757;-68
2021/12/21 12:29:55;;;;;;;27.17;17.55;;;;;;;;;;4993437;28;99896;-68
2021/12/21 12:32:30;;;;;;;32.90;17.50;;;;;;;;;;4995080;28;99690;-68
2021/12/21 12:35:00;;;;;;;31.70;16.42;;;;;;;;;;4991068;28;98604;-68
2021/12/21 12:37:26;;;;;;;28.02;16.50;;;;;;;;;;4991731;28;101013;-69
2021/12/21 12:39:54;;;;;;;28.40;15.68;;;;;;;;;;4992462;28;99587;-69
2021/12/21 12:42:29;;;;;;;26.13;14.18;;;;;;;;;;4990706;28;100264;-69
2021/12/21 12:45:16;;;;;;;25.85;14.20;;;;;;;;;;4993137;27;99831;-69
2021/12/21 12:47:43;;;;;;;20.00;13.55;;;;;;;;;;4997425;28;98620;-69
2021/12/21 12:50:13;;;;;;;22.70;12.88;;;;;;;;;;4991108;28;99318;-69
2021/12/21 12:52:47;;;;;;;22.08;14.07;;;;;;;;;;4996035;28;102305;-69
2021/12/21 12:55:17;;;;;;;25.48;14.35;;;;;;;;;;4990119;28;99875;-69
2021/12/21 12:57:51;;;;;;;20.70;13.30;;;;;;;;;;4986421;28;101045;-70
2021/12/21 13:00:24;;;;;;;20.55;13.30;;;;;;;;;;4982561;28;99338;-70
2021/12/21 13:03:00;;;;;;;24.88;12.77;;;;;;;;;;4990507;28;98212;-69
2021/12/21 13:05:30;;;;;;;21.85;12.82;;;;;;;;;;4989750;28;99305;-69
2021/12/21 13:08:05;;;;;;;21.50;13.50;;;;;;;;;;4992468;28;99881;-69
2021/12/21 13:10:31;;;;;;;21.90;12.82;;;;;;;;;;4982430;28;100448;-69
2021/12/21 13:12:58;;;;;;;21.15;12.75;;;;;;;;;;4988861;28;99725;-68
2021/12/21 13:15:35;;;;;;;21.88;11.65;;;;;;;;;;4989046;28;98653;-69
2021/12/21 13:18:03;;;;;;;22.83;12.32;;;;;;;;;;4989711;28;100343;-69
2021/12/21 13:20:31;;;;;;;20.77;12.50;;;;;;;;;;4989135;28;100360;-69
2021/12/21 13:23:07;;;;;;;17.75;11.70;;;;;;;;;;4988989;28;99866;-69
2021/12/21 13:25:33;;;;;;;20.20;11.45;;;;;;;;;;4988641;28;99994;-69
2021/12/21 13:28:07;;;;;;;16.63;11.80;;;;;;;;;;4992352;28;99477;-69
2021/12/21 13:30:34;;;;;;;24.17;11.70;;;;;;;;;;4989398;28;100156;-70
2021/12/21 13:33:00;;;;;;;25.90;13.05;;;;;;;;;;4988901;28;100228;-69
2021/12/21 13:35:29;;;;;;;16.60;11.90;;;;;;;;;;4988572;28;99377;-69
2021/12/21 13:37:55;;;;;;;20.08;12.05;;;;;;;;;;4987969;28;100977;-69
2021/12/21 13:40:23;;;;;;;21.45;12.57;;;;;;;;;;4987978;28;100290;-69
2021/12/21 13:42:50;;;;;;;25.80;12.73;;;;;;;;;;4988460;28;98975;-69
2021/12/21 13:45:16;;;;;;;21.52;12.30;;;;;;;;;;4988694;28;100290;-69
2021/12/21 13:47:45;;;;;;;16.23;12.68;;;;;;;;;;4988193;28;100547;-69
2021/12/21 13:50:11;;;;;;;19.15;11.90;;;;;;;;;;4992077;28;100157;-69
2021/12/21 13:52:45;;;;;;;16.48;12.38;;;;;;;;;;4988895;28;99529;-69
2021/12/21 13:55:23;;;;;;;22.52;13.07;;;;;;;;;;4980988;28;99085;-69
2021/12/21 13:57:54;;;;;;;17.23;12.45;;;;;;;;;;4988697;28;99187;-69
2021/12/21 14:00:25;;;;;;;23.02;12.68;;;;;;;;;;4988495;28;100518;-69
2021/12/21 14:03:02;;;;;;;25.48;12.38;;;;;;;;;;4988010;28;98584;-69
2021/12/21 14:05:41;;;;;;;16.95;11.20;;;;;;;;;;4988655;28;99277;-69
2021/12/21 14:08:08;;;;;;;21.42;10.80;;;;;;;;;;4972648;27;99633;-70
2021/12/21 14:10:41;;;;;;;27.75;12.20;;;;;;;;;;4988547;28;98696;-69
2021/12/21 14:13:08;;;;;;;22.10;11.13;;;;;;;;;;4993218;28;100001;-69
2021/12/21 14:15:39;;;;;;;19.60;12.32;;;;;;;;;;4989032;28;98602;-70
2021/12/21 14:18:29;;;;;;;14.68;9.98;;;;;;;;;;4988419;28;100259;-69
2021/12/21 14:21:15;;;;;;;15.95;10.02;;;;;;;;;;4983964;28;100182;-69
2021/12/21 14:23:43;;;;;;;18.20;9.98;;;;;;;;;;4979796;28;98786;-69
2021/12/21 14:26:19;;;;;;;17.27;10.55;;;;;;;;;;4988764;28;100427;-69
2021/12/21 14:28:48;;;;;;;18.65;10.10;;;;;;;;;;4988206;28;101155;-70
2021/12/21 14:31:17;;;;;;;16.27;9.95;;;;;;;;;;4985950;28;99437;-69
2021/12/21 14:33:50;;;;;;;15.70;10.88;;;;;;;;;;4979617;28;100384;-69
2021/12/21 14:36:17;;;;;;;21.05;10.77;;;;;;;;;;4986561;28;99334;-69
2021/12/21 14:38:50;;;;;;;18.05;9.82;;;;;;;;;;4976717;28;100127;-69
2021/12/21 14:41:24;;;;;;;21.42;11.55;;;;;;;;;;4975160;28;100368;-69
2021/12/21 14:44:01;;;;;;;15.05;10.25;;;;;;;;;;4970008;28;97767;-69
2021/12/21 14:46:27;;;;;;;17.27;10.18;;;;;;;;;;4975540;28;99302;-69
2021/12/21 14:49:04;;;;;;;21.85;10.65;;;;;;;;;;4970723;28;100486;-69
2021/12/21 14:51:46;;;;;;;15.32;11.43;;;;;;;;;;4976628;28;99398;-69
2021/12/21 14:54:15;;;;;;;23.25;10.13;;;;;;;;;;4980032;28;100808;-69
2021/12/21 14:56:41;;;;;;;18.75;11.95;;;;;;;;;;4972395;28;99645;-69
2021/12/21 14:59:08;;;;;;;19.85;11.48;;;;;;;;;;4982564;28;98645;-69
2021/12/21 15:01:42;;;;;;;19.75;11.65;;;;;;;;;;4976796;28;100272;-69
2021/12/21 15:04:15;;;;;;;19.13;11.45;;;;;;;;;;4974780;28;99886;-69
2021/12/21 15:06:42;;;;;;;23.38;11.43;;;;;;;;;;4990022;28;100273;-69
2021/12/21 15:09:08;;;;;;;22.02;12.20;;;;;;;;;;4991629;28;98505;-69
2021/12/21 15:11:35;;;;;;;21.63;10.82;;;;;;;;;;4980598;28;98617;-70
2021/12/21 15:14:01;;;;;;;12.68;11.38;;;;;;;;;;4982563;28;100031;-69
2021/12/21 15:16:28;;;;;;;20.35;11.80;;;;;;;;;;4980115;27;100765;-70
2021/12/21 15:18:57;;;;;;;25.05;11.52;;;;;;;;;;4973418;28;100060;-70